ADDS METAR Data INFO
IDs: Format: Raw Decoded Include TAF

Data at: 1133 UTC 29 May 2017

KELA 291115Z AUTO 11003KT 10SM -RA CLR 22/22 A2996 RMK AO2 LTG DSNT S AND SW T02150215
KELA 291055Z AUTO 00000KT 10SM CLR 22/22 A2993 RMK AO2 LTG DSNT S AND SW T02150215
KELA 291035Z AUTO 02004KT 10SM CLR 21/21 A2989 RMK AO2 LTG DSNT SW T02130212
KELA 291015Z AUTO 36004KT 10SM CLR 21/21 A2989 RMK AO2 LTG DSNT SW T02130212
KELA 290955Z AUTO 02005KT 10SM -RA CLR 22/21 A2989 RMK AO2 T02150212
KELA 290935Z AUTO 06007KT 10SM CLR 22/21 A2991 RMK AO2 T02160213
KELA 290915Z AUTO 07006KT 10SM CLR 22/21 A2989 RMK AO2 T02160213
KELA 290855Z AUTO 09003KT 10SM CLR 22/21 A2989 RMK AO2 LTG DSNT E T02160214
KELA 290835Z AUTO 00000KT 10SM CLR 22/21 A2989 RMK AO2 T02150213
KELA 290815Z AUTO 15003KT 10SM CLR 22/22 A2991 RMK AO2 T02150215
KELA 290755Z AUTO 16008KT 10SM SCT004 22/22 A2992 RMK AO2 LTG DSNT E AND SE T02150215
KELA 290735Z AUTO 15011G14KT 10SM OVC004 22/22 A2995 RMK AO2 LTG DSNT E AND SE T02160216
KELA 290715Z AUTO 14008KT 10SM BKN006 OVC010 22/22 A2996 RMK AO2 LTG DSNT E THRU SW T02180217
KELA 290655Z AUTO 13007KT 10SM VCTS SCT008 22/22 A2996 RMK AO2 LTG DSNT E THRU W T02170217
KELA 290635Z AUTO 12008KT 10SM TS SCT005 22/22 A2996 RMK AO2 LTG DSNT ALQS T02150215
KELA 290615Z AUTO 12007KT 10SM TS SCT005 22/22 A2996 RMK AO2 LTG DSNT ALQS T02160216
KELA 290555Z AUTO 19004KT 10SM -TSRA SCT110 22/22 A3000 RMK AO2 LTG DSNT ALQS P0010 60147 T02180216 10300 20212 403320212
KELA 290535Z AUTO 07006KT 10SM -TSRA SCT055 SCT070 OVC110 22/22 A3002 RMK AO2 LTG DSNT ALQS P0010 T02150215
KELA 290515Z AUTO 17005KT 7SM -TSRA SCT046 BKN050 OVC110 21/21 A3001 RMK AO2 LTG DSNT ALQS P0008 T02130212
KELA 290455Z AUTO 10005KT 4SM +TSRA SCT007 BKN044 OVC055 21/21 A3001 RMK AO2 LTG DSNT ALQS P0136 T02130210
KELA 290435Z AUTO 03006KT 1SM +TSRA BKN007 OVC016 22/21 A3003 RMK AO2 LTG DSNT ALQS P0107 T02150207
KELA 290415Z AUTO 01011G17KT 7SM +TSRA SCT017 BKN025 OVC034 23/21 A3003 RMK AO2 LTG DSNT ALQS P0005 T02310207
KELA 290355Z AUTO 01012G20KT 10SM TS SCT017 BKN038 BKN045 25/23 A3000 RMK AO2 LTG DSNT W THRU NE T02510226
KELA 290335Z AUTO 00000KT 7SM TS SCT070 27/26 A2997 RMK AO2 LTG DSNT W THRU NE T02650257
KELA 290315Z AUTO 36003KT 7SM SCT070 27/26 A2997 RMK AO2 LTG DSNT NE AND NW T02670256
KELA 290255Z AUTO 00000KT 10SM CLR 27/25 A2994 RMK AO2 LTG DSNT NE T02700253
KELA 290235Z AUTO 17004KT 10SM CLR 27/25 A2993 RMK AO2 T02710252
KELA 290215Z AUTO 19004KT 10SM CLR 27/25 A2992 RMK AO2 LTG DSNT N T02710251
KELA 290155Z AUTO 20003KT 10SM CLR 28/25 A2990 RMK AO2 LTG DSNT W T02770251
KELA 290135Z AUTO 19006KT 10SM CLR 28/25 A2988 RMK AO2 LTG DSNT W T02800251
KELA 290115Z AUTO 21004KT 10SM SCT048 28/25 A2987 RMK AO2 LTG DSNT W T02830250
KELA 290055Z AUTO 19008KT 10SM SCT048 29/25 A2985 RMK AO2 T02870250
KELA 290035Z AUTO 19009KT 10SM CLR 29/25 A2984 RMK AO2 T02910250
KELA 290015Z AUTO 19009KT 10SM CLR 30/25 A2983 RMK AO2 T02960248
KELA 282355Z AUTO 20011KT 10SM CLR 30/25 A2983 RMK AO2 T03000248 10332 20300
KELA 282335Z AUTO 18011KT 10SM CLR 31/25 A2984 RMK AO2 T03050252
KELA 282315Z AUTO 18010G14KT 10SM CLR 31/25 A2983 RMK AO2 T03100249
KELA 282255Z AUTO 18011KT 10SM SCT049 32/25 A2984 RMK AO2 T03190253
KELA 282235Z AUTO 18010G16KT 10SM SCT033 SCT049 32/25 A2984 RMK AO2 T03160252
KELA 282215Z AUTO 17012KT 10SM SCT035 SCT049 33/25 A2985 RMK AO2 LTG DSNT NW T03260254
KELA 282155Z AUTO 17011KT 10SM SCT035 SCT041 BKN048 32/25 A2986 RMK AO2 T03190251
KELA 282135Z AUTO 16007G15KT 10SM SCT033 BKN042 BKN049 32/25 A2987 RMK AO2 T03170250
KELA 282115Z AUTO 16012G16KT 10SM BKN031 BKN042 BKN049 33/25 A2988 RMK AO2 T03310254
KELA 282055Z AUTO 17008KT 10SM SCT031 SCT047 33/26 A2989 RMK AO2 T03250256
KELA 282035Z AUTO 17013G16KT 10SM SCT031 32/26 A2989 RMK AO2 T03220255
KELA 282015Z AUTO 17011G17KT 10SM SCT032 32/25 A2990 RMK AO2 T03190249
KELA 281955Z AUTO 17010G18KT 10SM BKN030 BKN035 BKN043 32/25 A2990 RMK AO2 T03220254
KELA 281935Z AUTO 16013G17KT 10SM BKN030 BKN036 32/25 A2991 RMK AO2 T03170254
KELA 281915Z AUTO 18010KT 10SM SCT030 32/25 A2991 RMK AO2 T03220252
KELA 281855Z AUTO 15011G16KT 10SM SCT032 SCT037 32/25 A2991 RMK AO2 T03220250
KELA 281835Z AUTO 16013G19KT 10SM SCT032 32/25 A2991 RMK AO2 T03200252
KELA 281815Z AUTO 17013G17KT 10SM BKN032 BKN046 33/25 A2992 RMK AO2 T03260253
KELA 281755Z AUTO 16009G17KT 10SM SCT028 BKN037 BKN046 32/25 A2992 RMK AO2 T03210251 10325 20260
KELA 281735Z AUTO 16007G15KT 10SM BKN028 32/26 A2993 RMK AO2 T03210255
KELA 281715Z AUTO 13008KT 10SM BKN028 BKN032 BKN038 31/26 A2994 RMK AO2 T03130255
KELA 281655Z AUTO 13007KT 10SM BKN026 OVC034 31/26 A2995 RMK AO2 T03130255
KELA 281635Z AUTO 11005KT 10SM SCT022 SCT029 OVC034 31/26 A2995 RMK AO2 T03060256
KELA 281615Z AUTO 14005KT 10SM SCT022 BKN029 OVC036 30/26 A2995 RMK AO2 T02990255
KELA 281555Z AUTO 10004KT 10SM SCT020 BKN033 OVC041 30/25 A2995 RMK AO2 T03000251
KELA 281535Z AUTO 19003KT 10SM BKN020 BKN029 OVC038 29/26 A2994 RMK AO2 T02930255
KELA 281515Z AUTO 16004KT 10SM BKN018 BKN025 29/26 A2993 RMK AO2 T02910255
KELA 281455Z AUTO 16005KT 10SM BKN014 BKN021 OVC028 29/26 A2993 RMK AO2 T02900257
KELA 281435Z AUTO 19005KT 7SM BKN012 BKN018 OVC026 29/26 A2992 RMK AO2 T02860259
KELA 281415Z AUTO 18005KT 7SM SCT011 BKN016 OVC029 28/26 A2991 RMK AO2 T02760258
KELA 281355Z AUTO 18003KT 7SM SCT014 SCT020 OVC031 28/26 A2991 RMK AO2 T02750258
KELA 281335Z AUTO 20004KT 7SM SCT011 BKN014 OVC034 27/26 A2991 RMK AO2 T02700257
KELA 281315Z AUTO 00000KT 7SM BKN013 BKN024 OVC029 27/26 A2990 RMK AO2 T02680255
KELA 281255Z AUTO 00000KT 7SM BKN014 OVC022 27/26 A2989 RMK AO2 T02660255
KELA 281235Z AUTO 20004KT 7SM BKN012 BKN018 OVC024 27/26 A2988 RMK AO2 T02650255
KELA 281215Z AUTO 21004KT 7SM SCT014 OVC024 26/25 A2987 RMK AO2 T02620252
KELA 281155Z AUTO 20004KT 7SM BKN016 OVC022 26/25 A2986 RMK AO2 T02600251 10262 20252
KELA 281135Z AUTO 20005KT 7SM OVC016 26/25 A2985 RMK AO2 T02570251
KELA 281115Z AUTO 18005KT 7SM OVC016 26/25 A2984 RMK AO2 T02570250
KELA 281055Z AUTO 17006KT 7SM OVC016 26/25 A2982 RMK AO2 T02560250
KELA 281035Z AUTO 19005KT 7SM OVC016 26/25 A2982 RMK AO2 T02600251
KELA 281015Z AUTO 18007KT 7SM OVC018 26/25 A2981 RMK AO2 LTG DSNT NE T02580251
KELA 280955Z AUTO 18009KT 7SM SCT012 OVC018 26/25 A2981 RMK AO2 T02620252
KELA 280935Z AUTO 20007KT 7SM SCT012 OVC018 26/25 A2981 RMK AO2 T02620254
KELA 280915Z AUTO 19011G15KT 7SM SCT010 OVC018 26/25 A2981 RMK AO2 T02600254
KELA 280855Z AUTO 18008G15KT 7SM SCT010 OVC018 26/26 A2981 RMK AO2 T02580256
KELA 280835Z AUTO 17008KT 5SM BR SCT008 OVC018 26/26 A2982 RMK AO2 T02570256
KELA 280815Z AUTO 17006KT 5SM BR OVC008 26/26 A2982 RMK AO2 T02550255
KELA 280755Z AUTO 16005KT 5SM BR BKN008 OVC021 25/25 A2984 RMK AO2 T02520252
KELA 280735Z AUTO 16004KT 5SM BR SCT008 OVC023 26/25 A2985 RMK AO2 T02550252
KELA 280715Z AUTO 19005KT 7SM SCT006 SCT012 OVC023 26/26 A2986 RMK AO2 T02570255
KELA 280655Z AUTO 20006KT 7SM BKN006 OVC023 26/26 A2986 RMK AO2 T02570255
KELA 280635Z AUTO 19007KT 7SM BKN008 OVC023 26/26 A2986 RMK AO2 T02600255
KELA 280615Z AUTO 20006KT 7SM BKN008 BKN017 OVC021 26/26 A2987 RMK AO2 T02600255
KELA 280555Z AUTO 21005KT 7SM BKN008 OVC019 26/26 A2988 RMK AO2 T02580255 10297 20252 403270252
KELA 280535Z AUTO 22006KT 7SM OVC008 26/26 A2989 RMK AO2 T02580255
KELA 280515Z AUTO 21007KT 7SM OVC008 26/26 A2989 RMK AO2 T02560255
KELA 280455Z AUTO 19005KT 7SM BKN008 BKN016 25/25 A2988 RMK AO2 T02520251
KELA 280435Z AUTO 17006KT 7SM SCT016 25/25 A2987 RMK AO2 T02520251
KELA 280415Z AUTO 17007KT 7SM SCT009 SCT016 25/25 A2988 RMK AO2 T02530250
KELA 280355Z AUTO 17007KT 7SM BKN009 26/25 A2988 RMK AO2 T02550251
KELA 280335Z AUTO 17006KT 7SM OVC011 26/25 A2988 RMK AO2 T02570251
KELA 280315Z AUTO 17007KT 7SM OVC013 26/25 A2988 RMK AO2 T02600250
KELA 280255Z AUTO 17006KT 10SM OVC015 26/25 A2987 RMK AO2 T02600250
KELA 280235Z AUTO 16006KT 10SM SCT015 26/25 A2987 RMK AO2 T02600250
KELA 280215Z AUTO 17006KT 10SM CLR 26/25 A2987 RMK AO2 T02620250
KELA 280155Z AUTO 17007KT 10SM CLR 27/25 A2986 RMK AO2 T02650250
KELA 280135Z AUTO 17006KT 10SM CLR 27/25 A2986 RMK AO2 T02660248
KELA 280115Z AUTO 17008KT 10SM CLR 27/25 A2986 RMK AO2 T02730247
KELA 280055Z AUTO 17011KT 10SM CLR 28/25 A2986 RMK AO2 T02800246
KELA 280035Z AUTO 16009G14KT 10SM CLR 29/25 A2985 RMK AO2 T02870246
KELA 280015Z AUTO 17012G17KT 10SM SCT023 29/25 A2986 RMK AO2 T02920246
KELA 272355Z AUTO 16013KT 10SM BKN023 30/25 A2985 RMK AO2 T02970247 10327 20297
KELA 272335Z AUTO 18012G19KT 10SM SCT027 31/25 A2986 RMK AO2 T03050247


Page loaded:  11:33 UTC  |   04:33 AM Pacific  |   05:33 AM Mountain  |   06:33 AM Central  |   07:33 AM Eastern

 

ADVISORIES

FORECASTS

FORECASTS

OBSERVATIONS

USER TOOLS

ABOUT US